FZWS weather

Lubao Airport
Lubao, Kasai-Oriental Province, Congo (Kinshasa)

Public forecast

Using degrees Celsius for public forecast. Weather courtesy of forecast.io.

Closest aviation weather report (METAR) to Lubao Airport

Closest report is Mbuji Mayi Airport, 138.4 nm (256.3 km) WSW. Retrieved 2019/10/23 06:00 UTC (22 minutes ago):

FZWA 230600Z 18004KT 9999 FEW014 SCT120 23/19 Q1014 NOSIG

Closest aviation forecast (TAF) to Lubao Airport

Forecast is more than 12 hours old.

Closest forecast is Mbuji Mayi Airport, 138.4 nm (256.3 km) WSW. Retrieved 2019/10/18 06:00 UTC (5 days ago):

TAF FZWA 180500Z 1806/1912 29004KT 9999 FEW012 BECMG 1809/1811 35010KT SCT022 BECMG 1813/1815 BKN024 FEW030CB PROB30 TEMPO 1816/1820 TS BECMG 1822/1900 00000KT FEW010